sensor_id;sensor_type;location;lat;lon;timestamp;P1;durP1;ratioP1;P2;durP2;ratioP2
39434;SDS011;66825;51.880;-0.518;2023-11-21T00:01:58;1.50;;;0.80;;
39434;SDS011;66825;51.880;-0.518;2023-11-21T00:04:24;1.55;;;0.70;;
39434;SDS011;66825;51.880;-0.518;2023-11-21T00:06:53;1.30;;;0.70;;
39434;SDS011;66825;51.880;-0.518;2023-11-21T00:09:19;1.98;;;0.73;;
39434;SDS011;66825;51.880;-0.518;2023-11-21T00:11:45;1.92;;;0.77;;
39434;SDS011;66825;51.880;-0.518;2023-11-21T00:14:11;1.20;;;0.80;;
39434;SDS011;66825;51.880;-0.518;2023-11-21T00:16:36;1.17;;;0.60;;
39434;SDS011;66825;51.880;-0.518;2023-11-21T00:19:02;1.75;;;0.80;;
39434;SDS011;66825;51.880;-0.518;2023-11-21T00:21:27;0.80;;;0.60;;
39434;SDS011;66825;51.880;-0.518;2023-11-21T00:23:53;1.90;;;0.82;;
39434;SDS011;66825;51.880;-0.518;2023-11-21T00:26:18;1.45;;;0.63;;
39434;SDS011;66825;51.880;-0.518;2023-11-21T00:28:44;1.40;;;0.77;;
39434;SDS011;66825;51.880;-0.518;2023-11-21T00:31:10;0.93;;;0.52;;
39434;SDS011;66825;51.880;-0.518;2023-11-21T00:33:36;1.02;;;0.73;;
39434;SDS011;66825;51.880;-0.518;2023-11-21T00:36:01;2.25;;;0.60;;
39434;SDS011;66825;51.880;-0.518;2023-11-21T00:38:26;0.95;;;0.60;;
39434;SDS011;66825;51.880;-0.518;2023-11-21T00:40:52;1.40;;;0.63;;
39434;SDS011;66825;51.880;-0.518;2023-11-21T00:43:21;0.93;;;0.50;;
39434;SDS011;66825;51.880;-0.518;2023-11-21T00:45:48;0.73;;;0.60;;
39434;SDS011;66825;51.880;-0.518;2023-11-21T00:48:14;1.23;;;0.70;;
39434;SDS011;66825;51.880;-0.518;2023-11-21T00:50:40;1.80;;;0.70;;
39434;SDS011;66825;51.880;-0.518;2023-11-21T00:53:05;1.30;;;0.60;;
39434;SDS011;66825;51.880;-0.518;2023-11-21T00:55:32;1.10;;;0.60;;
39434;SDS011;66825;51.880;-0.518;2023-11-21T00:57:59;1.30;;;0.57;;
39434;SDS011;66825;51.880;-0.518;2023-11-21T01:00:25;0.93;;;0.60;;
39434;SDS011;66825;51.880;-0.518;2023-11-21T01:02:50;1.30;;;0.60;;
39434;SDS011;66825;51.880;-0.518;2023-11-21T01:05:16;0.82;;;0.52;;
39434;SDS011;66825;51.880;-0.518;2023-11-21T01:07:42;1.65;;;0.80;;
39434;SDS011;66825;51.880;-0.518;2023-11-21T01:10:07;0.82;;;0.60;;
39434;SDS011;66825;51.880;-0.518;2023-11-21T01:12:34;1.30;;;0.60;;
39434;SDS011;66825;51.880;-0.518;2023-11-21T01:15:01;0.88;;;0.60;;
39434;SDS011;66825;51.880;-0.518;2023-11-21T01:17:26;0.93;;;0.65;;
39434;SDS011;66825;51.880;-0.518;2023-11-21T01:19:52;0.82;;;0.47;;
39434;SDS011;66825;51.880;-0.518;2023-11-21T01:22:17;1.05;;;0.50;;
39434;SDS011;66825;51.880;-0.518;2023-11-21T01:24:47;1.08;;;0.55;;
39434;SDS011;66825;51.880;-0.518;2023-11-21T01:27:12;1.13;;;0.70;;
39434;SDS011;66825;51.880;-0.518;2023-11-21T01:29:38;0.90;;;0.50;;
39434;SDS011;66825;51.880;-0.518;2023-11-21T01:32:03;0.90;;;0.47;;
39434;SDS011;66825;51.880;-0.518;2023-11-21T01:34:29;0.60;;;0.40;;
39434;SDS011;66825;51.880;-0.518;2023-11-21T01:36:55;1.20;;;0.68;;
39434;SDS011;66825;51.880;-0.518;2023-11-21T01:39:21;1.25;;;0.70;;
39434;SDS011;66825;51.880;-0.518;2023-11-21T01:41:49;1.40;;;0.80;;
39434;SDS011;66825;51.880;-0.518;2023-11-21T01:44:17;1.08;;;0.50;;
39434;SDS011;66825;51.880;-0.518;2023-11-21T01:46:44;1.17;;;0.70;;
39434;SDS011;66825;51.880;-0.518;2023-11-21T01:49:11;0.57;;;0.40;;
39434;SDS011;66825;51.880;-0.518;2023-11-21T01:51:38;1.15;;;0.60;;
39434;SDS011;66825;51.880;-0.518;2023-11-21T01:54:06;0.98;;;0.40;;
39434;SDS011;66825;51.880;-0.518;2023-11-21T01:56:32;0.70;;;0.50;;
39434;SDS011;66825;51.880;-0.518;2023-11-21T01:58:58;1.00;;;0.40;;
39434;SDS011;66825;51.880;-0.518;2023-11-21T02:01:23;1.58;;;0.60;;
39434;SDS011;66825;51.880;-0.518;2023-11-21T02:03:51;0.90;;;0.40;;
39434;SDS011;66825;51.880;-0.518;2023-11-21T02:06:17;0.90;;;0.50;;
39434;SDS011;66825;51.880;-0.518;2023-11-21T02:08:43;0.77;;;0.57;;
39434;SDS011;66825;51.880;-0.518;2023-11-21T02:11:09;0.88;;;0.60;;
39434;SDS011;66825;51.880;-0.518;2023-11-21T02:13:38;1.20;;;0.60;;
39434;SDS011;66825;51.880;-0.518;2023-11-21T02:16:09;0.90;;;0.50;;
39434;SDS011;66825;51.880;-0.518;2023-11-21T02:18:37;0.50;;;0.47;;
39434;SDS011;66825;51.880;-0.518;2023-11-21T02:21:04;0.55;;;0.45;;
39434;SDS011;66825;51.880;-0.518;2023-11-21T02:23:30;1.02;;;0.50;;
39434;SDS011;66825;51.880;-0.518;2023-11-21T02:25:55;0.68;;;0.50;;
39434;SDS011;66825;51.880;-0.518;2023-11-21T02:28:22;0.95;;;0.50;;
39434;SDS011;66825;51.880;-0.518;2023-11-21T02:30:51;0.98;;;0.50;;
39434;SDS011;66825;51.880;-0.518;2023-11-21T02:33:21;1.35;;;0.57;;
39434;SDS011;66825;51.880;-0.518;2023-11-21T02:35:47;1.05;;;0.60;;
39434;SDS011;66825;51.880;-0.518;2023-11-21T02:38:12;0.75;;;0.52;;
39434;SDS011;66825;51.880;-0.518;2023-11-21T02:40:39;1.20;;;0.60;;
39434;SDS011;66825;51.880;-0.518;2023-11-21T02:43:04;1.48;;;0.50;;
39434;SDS011;66825;51.880;-0.518;2023-11-21T02:45:31;0.70;;;0.50;;
39434;SDS011;66825;51.880;-0.518;2023-11-21T02:47:57;0.70;;;0.50;;
39434;SDS011;66825;51.880;-0.518;2023-11-21T02:50:23;0.85;;;0.50;;
39434;SDS011;66825;51.880;-0.518;2023-11-21T02:52:49;0.63;;;0.40;;
39434;SDS011;66825;51.880;-0.518;2023-11-21T02:55:14;0.50;;;0.30;;
39434;SDS011;66825;51.880;-0.518;2023-11-21T02:57:40;0.88;;;0.60;;
39434;SDS011;66825;51.880;-0.518;2023-11-21T03:00:06;0.60;;;0.50;;
39434;SDS011;66825;51.880;-0.518;2023-11-21T03:02:33;0.75;;;0.50;;
39434;SDS011;66825;51.880;-0.518;2023-11-21T03:05:02;0.55;;;0.40;;
39434;SDS011;66825;51.880;-0.518;2023-11-21T03:07:27;0.80;;;0.43;;
39434;SDS011;66825;51.880;-0.518;2023-11-21T03:09:53;0.70;;;0.40;;
39434;SDS011;66825;51.880;-0.518;2023-11-21T03:12:18;0.77;;;0.40;;
39434;SDS011;66825;51.880;-0.518;2023-11-21T03:14:44;0.82;;;0.40;;
39434;SDS011;66825;51.880;-0.518;2023-11-21T03:17:10;0.77;;;0.43;;
39434;SDS011;66825;51.880;-0.518;2023-11-21T03:19:36;1.05;;;0.50;;
39434;SDS011;66825;51.880;-0.518;2023-11-21T03:22:02;0.60;;;0.40;;
39434;SDS011;66825;51.880;-0.518;2023-11-21T03:24:29;0.60;;;0.40;;
39434;SDS011;66825;51.880;-0.518;2023-11-21T03:26:54;0.88;;;0.40;;
39434;SDS011;66825;51.880;-0.518;2023-11-21T03:29:20;0.70;;;0.40;;
39434;SDS011;66825;51.880;-0.518;2023-11-21T03:31:45;0.80;;;0.40;;
39434;SDS011;66825;51.880;-0.518;2023-11-21T03:34:14;0.90;;;0.52;;
39434;SDS011;66825;51.880;-0.518;2023-11-21T03:36:53;0.55;;;0.30;;
39434;SDS011;66825;51.880;-0.518;2023-11-21T03:39:19;0.60;;;0.40;;
39434;SDS011;66825;51.880;-0.518;2023-11-21T03:41:45;0.68;;;0.50;;
39434;SDS011;66825;51.880;-0.518;2023-11-21T03:44:11;1.13;;;0.50;;
39434;SDS011;66825;51.880;-0.518;2023-11-21T03:46:37;0.60;;;0.40;;
39434;SDS011;66825;51.880;-0.518;2023-11-21T03:49:02;0.65;;;0.40;;
39434;SDS011;66825;51.880;-0.518;2023-11-21T03:51:28;0.47;;;0.40;;
39434;SDS011;66825;51.880;-0.518;2023-11-21T03:53:53;0.40;;;0.30;;
39434;SDS011;66825;51.880;-0.518;2023-11-21T03:56:19;0.85;;;0.60;;
39434;SDS011;66825;51.880;-0.518;2023-11-21T03:58:47;0.40;;;0.30;;
39434;SDS011;66825;51.880;-0.518;2023-11-21T04:01:23;0.73;;;0.40;;
39434;SDS011;66825;51.880;-0.518;2023-11-21T04:03:50;1.27;;;0.50;;
39434;SDS011;66825;51.880;-0.518;2023-11-21T04:06:17;0.40;;;0.38;;
39434;SDS011;66825;51.880;-0.518;2023-11-21T04:08:45;1.08;;;0.43;;
39434;SDS011;66825;51.880;-0.518;2023-11-21T04:11:11;0.55;;;0.30;;
39434;SDS011;66825;51.880;-0.518;2023-11-21T04:13:38;0.52;;;0.30;;
39434;SDS011;66825;51.880;-0.518;2023-11-21T04:16:05;0.30;;;0.30;;
39434;SDS011;66825;51.880;-0.518;2023-11-21T04:18:31;0.55;;;0.30;;
39434;SDS011;66825;51.880;-0.518;2023-11-21T04:20:56;0.70;;;0.35;;
39434;SDS011;66825;51.880;-0.518;2023-11-21T04:23:22;0.50;;;0.30;;
39434;SDS011;66825;51.880;-0.518;2023-11-21T04:25:47;0.88;;;0.30;;
39434;SDS011;66825;51.880;-0.518;2023-11-21T04:28:13;0.50;;;0.35;;
39434;SDS011;66825;51.880;-0.518;2023-11-21T04:30:38;0.45;;;0.30;;
39434;SDS011;66825;51.880;-0.518;2023-11-21T04:33:04;0.28;;;0.20;;
39434;SDS011;66825;51.880;-0.518;2023-11-21T04:35:30;0.57;;;0.30;;
39434;SDS011;66825;51.880;-0.518;2023-11-21T04:37:55;0.70;;;0.40;;
39434;SDS011;66825;51.880;-0.518;2023-11-21T04:40:22;0.43;;;0.30;;
39434;SDS011;66825;51.880;-0.518;2023-11-21T04:42:48;0.70;;;0.30;;
39434;SDS011;66825;51.880;-0.518;2023-11-21T04:45:13;0.50;;;0.30;;
39434;SDS011;66825;51.880;-0.518;2023-11-21T04:47:39;0.50;;;0.20;;
39434;SDS011;66825;51.880;-0.518;2023-11-21T04:50:04;0.63;;;0.30;;
39434;SDS011;66825;51.880;-0.518;2023-11-21T04:52:31;0.47;;;0.30;;
39434;SDS011;66825;51.880;-0.518;2023-11-21T04:54:58;0.57;;;0.43;;
39434;SDS011;66825;51.880;-0.518;2023-11-21T04:57:24;0.70;;;0.40;;
39434;SDS011;66825;51.880;-0.518;2023-11-21T04:59:49;0.85;;;0.40;;
39434;SDS011;66825;51.880;-0.518;2023-11-21T05:02:15;0.70;;;0.30;;
39434;SDS011;66825;51.880;-0.518;2023-11-21T05:04:41;0.52;;;0.30;;
39434;SDS011;66825;51.880;-0.518;2023-11-21T05:07:08;0.50;;;0.40;;
39434;SDS011;66825;51.880;-0.518;2023-11-21T05:09:34;0.30;;;0.22;;
39434;SDS011;66825;51.880;-0.518;2023-11-21T05:12:00;0.50;;;0.30;;
39434;SDS011;66825;51.880;-0.518;2023-11-21T05:14:27;0.50;;;0.30;;
39434;SDS011;66825;51.880;-0.518;2023-11-21T05:16:52;0.50;;;0.20;;
39434;SDS011;66825;51.880;-0.518;2023-11-21T05:19:18;1.88;;;0.50;;
39434;SDS011;66825;51.880;-0.518;2023-11-21T05:21:43;0.40;;;0.30;;
39434;SDS011;66825;51.880;-0.518;2023-11-21T05:24:09;0.80;;;0.40;;
39434;SDS011;66825;51.880;-0.518;2023-11-21T05:26:34;1.10;;;0.50;;
39434;SDS011;66825;51.880;-0.518;2023-11-21T05:29:00;0.60;;;0.35;;
39434;SDS011;66825;51.880;-0.518;2023-11-21T05:31:25;0.68;;;0.40;;
39434;SDS011;66825;51.880;-0.518;2023-11-21T05:33:52;0.60;;;0.30;;
39434;SDS011;66825;51.880;-0.518;2023-11-21T05:36:18;0.60;;;0.30;;
39434;SDS011;66825;51.880;-0.518;2023-11-21T05:38:43;0.57;;;0.30;;
39434;SDS011;66825;51.880;-0.518;2023-11-21T05:41:09;0.50;;;0.30;;
39434;SDS011;66825;51.880;-0.518;2023-11-21T05:43:38;0.98;;;0.40;;
39434;SDS011;66825;51.880;-0.518;2023-11-21T05:46:04;0.63;;;0.30;;
39434;SDS011;66825;51.880;-0.518;2023-11-21T05:48:32;0.45;;;0.40;;
39434;SDS011;66825;51.880;-0.518;2023-11-21T05:50:58;0.80;;;0.35;;
39434;SDS011;66825;51.880;-0.518;2023-11-21T05:53:24;0.50;;;0.28;;
39434;SDS011;66825;51.880;-0.518;2023-11-21T05:55:49;0.88;;;0.30;;
39434;SDS011;66825;51.880;-0.518;2023-11-21T05:58:15;1.17;;;0.40;;
39434;SDS011;66825;51.880;-0.518;2023-11-21T06:00:40;0.60;;;0.20;;
39434;SDS011;66825;51.880;-0.518;2023-11-21T06:03:06;0.63;;;0.30;;
39434;SDS011;66825;51.880;-0.518;2023-11-21T06:05:33;0.57;;;0.30;;
39434;SDS011;66825;51.880;-0.518;2023-11-21T06:07:58;0.50;;;0.30;;
39434;SDS011;66825;51.880;-0.518;2023-11-21T06:10:24;0.82;;;0.30;;
39434;SDS011;66825;51.880;-0.518;2023-11-21T06:12:50;0.40;;;0.30;;
39434;SDS011;66825;51.880;-0.518;2023-11-21T06:15:16;0.68;;;0.30;;
39434;SDS011;66825;51.880;-0.518;2023-11-21T06:17:44;0.68;;;0.45;;
39434;SDS011;66825;51.880;-0.518;2023-11-21T06:20:14;0.50;;;0.30;;
39434;SDS011;66825;51.880;-0.518;2023-11-21T06:22:42;0.52;;;0.20;;
39434;SDS011;66825;51.880;-0.518;2023-11-21T06:25:08;0.65;;;0.30;;
39434;SDS011;66825;51.880;-0.518;2023-11-21T06:27:37;0.45;;;0.30;;
39434;SDS011;66825;51.880;-0.518;2023-11-21T06:30:04;0.40;;;0.30;;
39434;SDS011;66825;51.880;-0.518;2023-11-21T06:32:31;0.50;;;0.20;;
39434;SDS011;66825;51.880;-0.518;2023-11-21T06:34:57;0.63;;;0.30;;
39434;SDS011;66825;51.880;-0.518;2023-11-21T06:37:27;0.70;;;0.40;;
39434;SDS011;66825;51.880;-0.518;2023-11-21T06:39:53;0.38;;;0.30;;
39434;SDS011;66825;51.880;-0.518;2023-11-21T06:42:19;0.30;;;0.20;;
39434;SDS011;66825;51.880;-0.518;2023-11-21T06:44:45;0.40;;;0.20;;
39434;SDS011;66825;51.880;-0.518;2023-11-21T06:47:10;0.60;;;0.35;;
39434;SDS011;66825;51.880;-0.518;2023-11-21T06:49:36;0.55;;;0.30;;
39434;SDS011;66825;51.880;-0.518;2023-11-21T06:52:03;0.43;;;0.30;;
39434;SDS011;66825;51.880;-0.518;2023-11-21T06:54:30;0.30;;;0.20;;
39434;SDS011;66825;51.880;-0.518;2023-11-21T06:56:56;0.43;;;0.25;;
39434;SDS011;66825;51.880;-0.518;2023-11-21T06:59:23;0.40;;;0.22;;
39434;SDS011;66825;51.880;-0.518;2023-11-21T07:01:49;0.30;;;0.30;;
39434;SDS011;66825;51.880;-0.518;2023-11-21T07:04:14;0.32;;;0.22;;
39434;SDS011;66825;51.880;-0.518;2023-11-21T07:06:40;0.55;;;0.28;;
39434;SDS011;66825;51.880;-0.518;2023-11-21T07:09:06;0.55;;;0.30;;
39434;SDS011;66825;51.880;-0.518;2023-11-21T07:11:33;0.55;;;0.20;;
39434;SDS011;66825;51.880;-0.518;2023-11-21T07:14:00;0.60;;;0.20;;
39434;SDS011;66825;51.880;-0.518;2023-11-21T07:16:31;0.60;;;0.30;;
39434;SDS011;66825;51.880;-0.518;2023-11-21T07:18:56;0.88;;;0.28;;
39434;SDS011;66825;51.880;-0.518;2023-11-21T07:21:22;0.22;;;0.17;;
39434;SDS011;66825;51.880;-0.518;2023-11-21T07:23:47;0.57;;;0.30;;
39434;SDS011;66825;51.880;-0.518;2023-11-21T07:26:13;0.60;;;0.30;;
39434;SDS011;66825;51.880;-0.518;2023-11-21T07:28:38;0.80;;;0.30;;
39434;SDS011;66825;51.880;-0.518;2023-11-21T07:31:03;0.40;;;0.20;;
39434;SDS011;66825;51.880;-0.518;2023-11-21T07:33:29;0.65;;;0.30;;
39434;SDS011;66825;51.880;-0.518;2023-11-21T07:35:55;0.40;;;0.20;;
39434;SDS011;66825;51.880;-0.518;2023-11-21T07:38:20;0.50;;;0.20;;
39434;SDS011;66825;51.880;-0.518;2023-11-21T07:40:46;0.43;;;0.20;;
39434;SDS011;66825;51.880;-0.518;2023-11-21T07:43:11;0.30;;;0.20;;
39434;SDS011;66825;51.880;-0.518;2023-11-21T07:45:37;0.25;;;0.10;;
39434;SDS011;66825;51.880;-0.518;2023-11-21T07:48:02;0.88;;;0.30;;
39434;SDS011;66825;51.880;-0.518;2023-11-21T07:50:30;0.65;;;0.35;;
39434;SDS011;66825;51.880;-0.518;2023-11-21T07:52:56;0.50;;;0.25;;
39434;SDS011;66825;51.880;-0.518;2023-11-21T07:55:23;0.47;;;0.20;;
39434;SDS011;66825;51.880;-0.518;2023-11-21T07:57:49;0.60;;;0.20;;
39434;SDS011;66825;51.880;-0.518;2023-11-21T08:00:15;0.25;;;0.20;;
39434;SDS011;66825;51.880;-0.518;2023-11-21T08:02:41;0.50;;;0.20;;
39434;SDS011;66825;51.880;-0.518;2023-11-21T08:05:11;0.50;;;0.20;;
39434;SDS011;66825;51.880;-0.518;2023-11-21T08:07:37;0.30;;;0.20;;
39434;SDS011;66825;51.880;-0.518;2023-11-21T08:10:03;0.47;;;0.20;;
39434;SDS011;66825;51.880;-0.518;2023-11-21T08:12:30;0.30;;;0.20;;
39434;SDS011;66825;51.880;-0.518;2023-11-21T08:14:56;0.43;;;0.20;;
39434;SDS011;66825;51.880;-0.518;2023-11-21T08:17:21;0.75;;;0.20;;
39434;SDS011;66825;51.880;-0.518;2023-11-21T08:19:47;0.30;;;0.30;;
39434;SDS011;66825;51.880;-0.518;2023-11-21T08:22:15;0.40;;;0.20;;
39434;SDS011;66825;51.880;-0.518;2023-11-21T08:24:43;0.50;;;0.30;;
39434;SDS011;66825;51.880;-0.518;2023-11-21T08:27:08;0.50;;;0.20;;
39434;SDS011;66825;51.880;-0.518;2023-11-21T08:29:34;0.20;;;0.20;;
39434;SDS011;66825;51.880;-0.518;2023-11-21T08:32:01;0.50;;;0.20;;
39434;SDS011;66825;51.880;-0.518;2023-11-21T08:34:27;1.05;;;0.38;;
39434;SDS011;66825;51.880;-0.518;2023-11-21T08:36:53;0.90;;;0.30;;
39434;SDS011;66825;51.880;-0.518;2023-11-21T08:39:20;0.77;;;0.28;;
39434;SDS011;66825;51.880;-0.518;2023-11-21T08:41:49;1.08;;;0.30;;
39434;SDS011;66825;51.880;-0.518;2023-11-21T08:44:16;0.68;;;0.20;;
39434;SDS011;66825;51.880;-0.518;2023-11-21T08:46:46;1.48;;;0.40;;
39434;SDS011;66825;51.880;-0.518;2023-11-21T08:49:12;0.30;;;0.20;;
39434;SDS011;66825;51.880;-0.518;2023-11-21T08:51:37;3.08;;;0.30;;
39434;SDS011;66825;51.880;-0.518;2023-11-21T08:54:04;0.93;;;0.30;;
39434;SDS011;66825;51.880;-0.518;2023-11-21T08:56:33;1.85;;;0.20;;
39434;SDS011;66825;51.880;-0.518;2023-11-21T08:58:59;1.33;;;0.17;;
39434;SDS011;66825;51.880;-0.518;2023-11-21T09:01:27;1.23;;;0.20;;
39434;SDS011;66825;51.880;-0.518;2023-11-21T09:03:59;0.68;;;0.20;;
39434;SDS011;66825;51.880;-0.518;2023-11-21T09:06:24;5.38;;;0.98;;
39434;SDS011;66825;51.880;-0.518;2023-11-21T09:08:50;7.45;;;1.35;;
39434;SDS011;66825;51.880;-0.518;2023-11-21T09:11:15;7.78;;;1.55;;
39434;SDS011;66825;51.880;-0.518;2023-11-21T09:13:42;5.13;;;1.30;;
39434;SDS011;66825;51.880;-0.518;2023-11-21T09:16:08;2.22;;;0.70;;
39434;SDS011;66825;51.880;-0.518;2023-11-21T09:18:33;2.20;;;0.65;;
39434;SDS011;66825;51.880;-0.518;2023-11-21T09:20:59;2.58;;;0.60;;
39434;SDS011;66825;51.880;-0.518;2023-11-21T09:23:24;4.35;;;0.57;;
39434;SDS011;66825;51.880;-0.518;2023-11-21T09:25:50;2.20;;;0.80;;
39434;SDS011;66825;51.880;-0.518;2023-11-21T09:28:17;1.20;;;0.50;;
39434;SDS011;66825;51.880;-0.518;2023-11-21T09:30:42;2.10;;;0.55;;
39434;SDS011;66825;51.880;-0.518;2023-11-21T09:33:08;1.73;;;0.57;;
39434;SDS011;66825;51.880;-0.518;2023-11-21T09:35:39;2.88;;;0.70;;
39434;SDS011;66825;51.880;-0.518;2023-11-21T09:38:04;1.75;;;0.50;;
39434;SDS011;66825;51.880;-0.518;2023-11-21T09:40:39;4.75;;;0.85;;
39434;SDS011;66825;51.880;-0.518;2023-11-21T09:43:08;2.35;;;0.70;;
39434;SDS011;66825;51.880;-0.518;2023-11-21T09:45:45;2.75;;;0.65;;
39434;SDS011;66825;51.880;-0.518;2023-11-21T09:48:19;1.77;;;0.60;;
39434;SDS011;66825;51.880;-0.518;2023-11-21T09:50:46;3.53;;;0.70;;
39434;SDS011;66825;51.880;-0.518;2023-11-21T09:53:13;2.38;;;0.80;;
39434;SDS011;66825;51.880;-0.518;2023-11-21T09:55:50;3.53;;;0.65;;
39434;SDS011;66825;51.880;-0.518;2023-11-21T09:58:19;1.77;;;0.70;;
39434;SDS011;66825;51.880;-0.518;2023-11-21T10:00:47;5.45;;;0.60;;
39434;SDS011;66825;51.880;-0.518;2023-11-21T10:03:14;4.22;;;1.00;;
39434;SDS011;66825;51.880;-0.518;2023-11-21T10:05:43;2.03;;;0.60;;
39434;SDS011;66825;51.880;-0.518;2023-11-21T10:08:11;1.95;;;0.70;;
39434;SDS011;66825;51.880;-0.518;2023-11-21T10:10:37;3.90;;;0.70;;
39434;SDS011;66825;51.880;-0.518;2023-11-21T10:13:09;2.10;;;0.55;;
39434;SDS011;66825;51.880;-0.518;2023-11-21T10:15:37;1.30;;;0.55;;
39434;SDS011;66825;51.880;-0.518;2023-11-21T10:18:03;2.28;;;0.45;;
39434;SDS011;66825;51.880;-0.518;2023-11-21T10:20:31;2.42;;;0.80;;
39434;SDS011;66825;51.880;-0.518;2023-11-21T10:22:59;3.67;;;0.70;;
39434;SDS011;66825;51.880;-0.518;2023-11-21T10:25:27;4.55;;;1.00;;
39434;SDS011;66825;51.880;-0.518;2023-11-21T10:27:56;4.85;;;1.30;;
39434;SDS011;66825;51.880;-0.518;2023-11-21T10:30:35;4.00;;;1.10;;
39434;SDS011;66825;51.880;-0.518;2023-11-21T10:33:05;4.82;;;1.23;;
39434;SDS011;66825;51.880;-0.518;2023-11-21T10:38:07;5.88;;;1.40;;
39434;SDS011;66825;51.880;-0.518;2023-11-21T10:40:38;3.47;;;0.90;;
39434;SDS011;66825;51.880;-0.518;2023-11-21T10:43:08;4.85;;;1.20;;
39434;SDS011;66825;51.880;-0.518;2023-11-21T10:45:35;3.22;;;1.17;;
39434;SDS011;66825;51.880;-0.518;2023-11-21T10:48:04;4.13;;;1.15;;
39434;SDS011;66825;51.880;-0.518;2023-11-21T10:50:33;4.13;;;1.10;;
39434;SDS011;66825;51.880;-0.518;2023-11-21T10:53:02;3.05;;;0.90;;
39434;SDS011;66825;51.880;-0.518;2023-11-21T10:55:29;3.83;;;1.02;;
39434;SDS011;66825;51.880;-0.518;2023-11-21T10:57:57;3.58;;;1.00;;
39434;SDS011;66825;51.880;-0.518;2023-11-21T11:00:23;2.92;;;0.88;;
39434;SDS011;66825;51.880;-0.518;2023-11-21T11:02:52;2.88;;;0.77;;
39434;SDS011;66825;51.880;-0.518;2023-11-21T11:05:25;8.38;;;2.05;;
39434;SDS011;66825;51.880;-0.518;2023-11-21T11:08:00;4.25;;;1.27;;
39434;SDS011;66825;51.880;-0.518;2023-11-21T11:10:29;3.67;;;1.10;;
39434;SDS011;66825;51.880;-0.518;2023-11-21T11:12:55;5.88;;;1.00;;
39434;SDS011;66825;51.880;-0.518;2023-11-21T11:15:25;3.10;;;0.82;;
39434;SDS011;66825;51.880;-0.518;2023-11-21T11:17:52;5.28;;;1.15;;
39434;SDS011;66825;51.880;-0.518;2023-11-21T11:20:29;3.78;;;0.93;;
39434;SDS011;66825;51.880;-0.518;2023-11-21T11:31:36;2.55;;;0.70;;
39434;SDS011;66825;51.880;-0.518;2023-11-21T11:34:28;2.47;;;0.80;;
39434;SDS011;66825;51.880;-0.518;2023-11-21T11:37:02;5.68;;;1.17;;
39434;SDS011;66825;51.880;-0.518;2023-11-21T11:39:36;11.40;;;2.17;;
39434;SDS011;66825;51.880;-0.518;2023-11-21T11:42:04;8.45;;;1.70;;
39434;SDS011;66825;51.880;-0.518;2023-11-21T11:49:56;4.43;;;1.05;;
39434;SDS011;66825;51.880;-0.518;2023-11-21T11:52:52;4.15;;;1.17;;
39434;SDS011;66825;51.880;-0.518;2023-11-21T11:55:23;2.78;;;0.90;;
39434;SDS011;66825;51.880;-0.518;2023-11-21T11:57:52;4.53;;;1.00;;
39434;SDS011;66825;51.880;-0.518;2023-11-21T12:00:22;4.00;;;0.88;;
39434;SDS011;66825;51.880;-0.518;2023-11-21T12:03:03;2.92;;;0.93;;
39434;SDS011;66825;51.880;-0.518;2023-11-21T12:08:07;5.85;;;1.00;;
39434;SDS011;66825;51.880;-0.518;2023-11-21T12:10:36;5.35;;;1.15;;
39434;SDS011;66825;51.880;-0.518;2023-11-21T12:13:07;4.32;;;1.00;;
39434;SDS011;66825;51.880;-0.518;2023-11-21T12:15:35;5.28;;;1.38;;
39434;SDS011;66825;51.880;-0.518;2023-11-21T12:18:02;5.57;;;1.40;;
39434;SDS011;66825;51.880;-0.518;2023-11-21T12:20:29;4.82;;;1.20;;
39434;SDS011;66825;51.880;-0.518;2023-11-21T12:22:59;6.32;;;1.33;;
39434;SDS011;66825;51.880;-0.518;2023-11-21T12:25:26;4.82;;;1.33;;
39434;SDS011;66825;51.880;-0.518;2023-11-21T12:27:57;5.32;;;1.23;;
39434;SDS011;66825;51.880;-0.518;2023-11-21T12:30:26;7.95;;;1.25;;
39434;SDS011;66825;51.880;-0.518;2023-11-21T12:32:53;4.90;;;1.13;;
39434;SDS011;66825;51.880;-0.518;2023-11-21T12:35:24;4.95;;;1.17;;
39434;SDS011;66825;51.880;-0.518;2023-11-21T12:37:52;3.90;;;1.10;;
39434;SDS011;66825;51.880;-0.518;2023-11-21T12:40:19;2.72;;;0.90;;
39434;SDS011;66825;51.880;-0.518;2023-11-21T12:42:48;2.42;;;0.88;;
39434;SDS011;66825;51.880;-0.518;2023-11-21T12:47:46;5.43;;;1.27;;
39434;SDS011;66825;51.880;-0.518;2023-11-21T12:52:47;3.72;;;0.82;;
39434;SDS011;66825;51.880;-0.518;2023-11-21T12:55:16;4.45;;;1.08;;
39434;SDS011;66825;51.880;-0.518;2023-11-21T12:57:52;8.07;;;1.95;;
39434;SDS011;66825;51.880;-0.518;2023-11-21T13:00:32;6.80;;;1.38;;
39434;SDS011;66825;51.880;-0.518;2023-11-21T13:05:29;6.60;;;1.40;;
39434;SDS011;66825;51.880;-0.518;2023-11-21T13:07:56;6.53;;;1.30;;
39434;SDS011;66825;51.880;-0.518;2023-11-21T13:10:26;4.50;;;1.10;;
39434;SDS011;66825;51.880;-0.518;2023-11-21T13:12:56;4.97;;;0.95;;
39434;SDS011;66825;51.880;-0.518;2023-11-21T13:15:24;3.70;;;0.85;;
39434;SDS011;66825;51.880;-0.518;2023-11-21T13:17:50;6.72;;;1.15;;
39434;SDS011;66825;51.880;-0.518;2023-11-21T13:20:16;4.05;;;1.08;;
39434;SDS011;66825;51.880;-0.518;2023-11-21T13:25:24;3.53;;;0.93;;
39434;SDS011;66825;51.880;-0.518;2023-11-21T13:27:53;3.90;;;0.98;;
39434;SDS011;66825;51.880;-0.518;2023-11-21T13:30:20;2.92;;;0.80;;
39434;SDS011;66825;51.880;-0.518;2023-11-21T13:32:55;3.97;;;1.00;;
39434;SDS011;66825;51.880;-0.518;2023-11-21T13:35:25;4.53;;;1.20;;
39434;SDS011;66825;51.880;-0.518;2023-11-21T13:38:03;4.60;;;0.80;;
39434;SDS011;66825;51.880;-0.518;2023-11-21T13:40:31;2.17;;;0.70;;
39434;SDS011;66825;51.880;-0.518;2023-11-21T13:42:59;7.15;;;0.90;;
39434;SDS011;66825;51.880;-0.518;2023-11-21T13:45:29;3.55;;;1.00;;
39434;SDS011;66825;51.880;-0.518;2023-11-21T13:47:56;4.32;;;1.10;;
39434;SDS011;66825;51.880;-0.518;2023-11-21T13:50:24;4.22;;;1.10;;
39434;SDS011;66825;51.880;-0.518;2023-11-21T13:53:01;3.88;;;1.00;;
39434;SDS011;66825;51.880;-0.518;2023-11-21T13:55:46;5.07;;;1.02;;
39434;SDS011;66825;51.880;-0.518;2023-11-21T13:58:13;4.18;;;1.00;;
39434;SDS011;66825;51.880;-0.518;2023-11-21T14:00:44;3.80;;;1.00;;
39434;SDS011;66825;51.880;-0.518;2023-11-21T14:03:14;2.45;;;0.90;;
39434;SDS011;66825;51.880;-0.518;2023-11-21T14:05:49;4.78;;;0.93;;
39434;SDS011;66825;51.880;-0.518;2023-11-21T14:08:20;5.05;;;1.05;;
39434;SDS011;66825;51.880;-0.518;2023-11-21T14:10:49;3.17;;;0.90;;
39434;SDS011;66825;51.880;-0.518;2023-11-21T14:13:25;4.03;;;1.08;;
39434;SDS011;66825;51.880;-0.518;2023-11-21T14:15:52;2.85;;;0.90;;
39434;SDS011;66825;51.880;-0.518;2023-11-21T14:18:27;3.65;;;1.10;;
39434;SDS011;66825;51.880;-0.518;2023-11-21T14:21:01;4.90;;;1.30;;
39434;SDS011;66825;51.880;-0.518;2023-11-21T14:23:26;3.47;;;1.02;;
39434;SDS011;66825;51.880;-0.518;2023-11-21T14:25:53;3.30;;;1.02;;
39434;SDS011;66825;51.880;-0.518;2023-11-21T14:28:19;3.55;;;1.20;;
39434;SDS011;66825;51.880;-0.518;2023-11-21T14:30:45;3.83;;;0.98;;
39434;SDS011;66825;51.880;-0.518;2023-11-21T14:33:11;2.95;;;0.90;;
39434;SDS011;66825;51.880;-0.518;2023-11-21T14:35:37;2.58;;;0.73;;
39434;SDS011;66825;51.880;-0.518;2023-11-21T14:38:03;3.42;;;1.00;;
39434;SDS011;66825;51.880;-0.518;2023-11-21T14:40:32;5.18;;;1.08;;
39434;SDS011;66825;51.880;-0.518;2023-11-21T14:45:26;3.17;;;0.90;;
39434;SDS011;66825;51.880;-0.518;2023-11-21T14:47:52;4.95;;;1.42;;
39434;SDS011;66825;51.880;-0.518;2023-11-21T14:50:34;2.72;;;0.98;;
39434;SDS011;66825;51.880;-0.518;2023-11-21T14:53:06;3.22;;;1.17;;
39434;SDS011;66825;51.880;-0.518;2023-11-21T14:55:33;6.00;;;1.42;;
39434;SDS011;66825;51.880;-0.518;2023-11-21T14:58:18;4.63;;;1.27;;
39434;SDS011;66825;51.880;-0.518;2023-11-21T15:01:00;5.15;;;1.52;;
39434;SDS011;66825;51.880;-0.518;2023-11-21T15:03:26;6.57;;;1.33;;
39434;SDS011;66825;51.880;-0.518;2023-11-21T15:05:59;5.50;;;1.65;;
39434;SDS011;66825;51.880;-0.518;2023-11-21T15:08:43;3.72;;;1.40;;